McKenzie Bridge, Oregon
Current Conditions -  °F | °C
As of 3:55 AM on Saturday 25 Oct 2014 (Local Time) from KBDN Reporting Station
Haze Haze  
Wind Chill: 40°   Ceiling: 100
Heat Index: 43°   Visibility: 1mi
Dew Point: 43°   Wind: 5mph
Humidity: 100%   Direction: 10°N
Pressure: 29.71"   Gusts: NA
Location:  44.2049°N, 122.069°W
Report Text: KBDN 251055Z AUTO 01004KT 1SM BR OVC001 06/06 A2971 RMK AO2
Loading
Personal Weather Stations






























Interactive Weather Map
Tropical Storm Tracking
New forecast layout! Learn more

10-Day Weather Forecast

Advertisements
Track Severe Weather on mobile